FYML

Mariental

Mariental, Namibia
METAR FYML 201200Z AUTO 09005KT //// // ////// 36/M02 Q1017
Observed Flight Rules
Oct-20 @ 12:00 UTC (52 minutes ago)
Wind
90° at 5 knots
Temperatures Readings
Current 36°C / 97°F
Dewpoint -2°C / 28°F
Humidity 9%
Altimeter 30.03" Hg
Pressure 1017 hPa
Elevation 1113
METAR FYML 201200Z AUTO 09005KT //// // ////// 36/M02 Q1017
Observed Flight Rules
Oct-20 @ 12:00 UTC
(52 minutes ago)
Wind
90° at 5 knots
Temperature Dewpoint
36°C / 97°F -2°C / 28°F
Humidity Altimeter Pressure
9% 30.03" Hg 1017 hPa